createdAt,value
2019-03-31T00:01:08.314Z,42.87
2019-03-31T00:03:37.516Z,41.83
2019-03-31T00:06:07.077Z,41.80
2019-03-31T00:08:36.517Z,42.70
2019-03-31T00:11:06.116Z,43.93
2019-03-31T00:13:35.604Z,43.07
2019-03-31T00:16:05.577Z,42.73
2019-03-31T00:18:35.096Z,41.47
2019-03-31T00:21:03.862Z,41.20
2019-03-31T00:23:32.612Z,43.03
2019-03-31T00:26:02.130Z,45.57
2019-03-31T00:28:30.800Z,46.27
2019-03-31T00:31:00.472Z,46.80
2019-03-31T00:33:29.977Z,47.33
2019-03-31T00:35:59.492Z,46.97
2019-03-31T00:38:29.028Z,46.77
2019-03-31T00:40:58.660Z,46.10
2019-03-31T00:43:28.377Z,45.87
2019-03-31T00:45:57.973Z,44.83
2019-03-31T00:48:27.604Z,46.30
2019-03-31T00:50:57.106Z,45.13
2019-03-31T00:53:26.710Z,44.87
2019-03-31T00:55:56.609Z,45.50
2019-03-31T00:58:26.310Z,46.23
2019-03-31T01:01:17.075Z,45.20
2019-03-31T01:03:46.954Z,44.93
2019-03-31T01:06:17.549Z,45.03
2019-03-31T01:08:47.129Z,44.40
2019-03-31T01:11:23.513Z,44.43
2019-03-31T01:13:53.513Z,44.63
2019-03-31T01:16:23.190Z,43.60
2019-03-31T01:18:52.709Z,43.90
2019-03-31T01:21:22.477Z,44.17
2019-03-31T01:23:52.465Z,43.73
2019-03-31T01:26:22.505Z,43.80
2019-03-31T01:28:53.022Z,45.10
2019-03-31T01:31:22.674Z,44.60
2019-03-31T01:33:52.266Z,44.63
2019-03-31T01:36:22.134Z,43.97
2019-03-31T01:38:52.098Z,44.27
2019-03-31T01:41:22.012Z,44.63
2019-03-31T01:43:51.702Z,43.50
2019-03-31T01:46:24.267Z,45.30
2019-03-31T01:48:53.790Z,45.83
2019-03-31T01:51:23.406Z,45.83
2019-03-31T01:53:52.890Z,46.00
2019-03-31T01:56:22.798Z,45.63
2019-03-31T01:58:52.310Z,46.03
2019-03-31T02:01:21.894Z,45.80
2019-03-31T02:03:51.802Z,44.93
2019-03-31T02:06:21.322Z,44.83
2019-03-31T02:08:50.907Z,44.93
2019-03-31T02:11:20.514Z,42.50
2019-03-31T02:13:50.103Z,43.63
2019-03-31T02:16:19.666Z,44.50
2019-03-31T02:18:49.197Z,44.43
2019-03-31T02:21:18.818Z,44.07
2019-03-31T02:23:48.344Z,42.50
2019-03-31T02:26:17.939Z,43.77
2019-03-31T02:28:47.510Z,40.53
2019-03-31T02:31:17.108Z,41.03
2019-03-31T02:33:47.257Z,41.80
2019-03-31T02:36:16.768Z,43.17
2019-03-31T02:38:46.564Z,41.67
2019-03-31T02:41:16.175Z,43.60
2019-03-31T02:43:45.821Z,44.17
2019-03-31T02:46:15.411Z,44.03
2019-03-31T02:48:45.009Z,44.27
2019-03-31T02:51:14.716Z,44.00
2019-03-31T02:53:44.284Z,43.10
2019-03-31T02:56:15.768Z,45.43
2019-03-31T02:58:45.732Z,43.67
2019-03-31T03:01:16.715Z,44.07
2019-03-31T03:03:47.880Z,43.93
2019-03-31T03:06:19.123Z,45.83
2019-03-31T03:08:51.700Z,43.17
2019-03-31T03:11:22.780Z,43.13
2019-03-31T03:13:53.360Z,43.07
2019-03-31T03:16:23.187Z,42.77
2019-03-31T03:18:52.703Z,43.47
2019-03-31T03:21:24.815Z,42.93
2019-03-31T03:23:54.038Z,42.63
2019-03-31T03:26:23.728Z,40.70
2019-03-31T03:28:53.404Z,39.90
2019-03-31T03:31:22.985Z,38.57
2019-03-31T03:33:52.590Z,37.93
2019-03-31T03:36:22.636Z,39.10
2019-03-31T03:38:52.220Z,37.10
2019-03-31T03:41:21.721Z,36.63
2019-03-31T03:43:55.664Z,36.63
2019-03-31T03:46:22.741Z,36.57
2019-03-31T03:48:52.192Z,38.40
2019-03-31T03:51:21.788Z,36.80
2019-03-31T03:53:51.403Z,37.23
2019-03-31T03:56:20.961Z,36.70
2019-03-31T03:58:50.445Z,38.90
2019-03-31T04:01:25.258Z,36.87
2019-03-31T04:03:54.731Z,37.57
2019-03-31T04:06:26.024Z,37.60
2019-03-31T04:08:55.549Z,37.60
2019-03-31T04:11:27.433Z,38.07
2019-03-31T04:13:57.851Z,37.03
2019-03-31T04:16:27.736Z,37.03
2019-03-31T04:18:57.769Z,37.17
2019-03-31T04:21:27.638Z,36.23
2019-03-31T04:23:58.021Z,37.40
2019-03-31T04:26:27.773Z,37.27
2019-03-31T04:28:57.935Z,36.57
2019-03-31T04:31:27.457Z,37.73
2019-03-31T04:33:57.359Z,37.53
2019-03-31T04:36:26.897Z,37.00
2019-03-31T04:39:00.099Z,36.40
2019-03-31T04:41:27.785Z,32.93
2019-03-31T04:43:57.309Z,33.90
2019-03-31T04:46:26.790Z,32.27
2019-03-31T04:48:56.222Z,33.57
2019-03-31T04:51:25.717Z,32.43
2019-03-31T04:53:55.262Z,34.13
2019-03-31T04:56:24.749Z,34.20
2019-03-31T04:58:54.258Z,34.20
2019-03-31T05:01:23.746Z,35.17
2019-03-31T05:04:04.465Z,31.93
2019-03-31T05:06:24.478Z,31.00
2019-03-31T05:08:53.898Z,31.90
2019-03-31T05:11:23.386Z,30.63
2019-03-31T05:13:52.922Z,30.90
2019-03-31T05:16:22.510Z,30.77
2019-03-31T05:18:52.106Z,28.43
2019-03-31T05:21:21.987Z,29.17
2019-03-31T05:23:51.607Z,28.27
2019-03-31T05:26:21.142Z,28.77
2019-03-31T05:28:50.742Z,27.83
2019-03-31T05:31:20.298Z,27.87
2019-03-31T05:33:50.734Z,27.40
2019-03-31T05:36:20.206Z,26.60
2019-03-31T05:38:49.730Z,26.23
2019-03-31T05:41:19.518Z,26.73
2019-03-31T05:43:49.095Z,25.90
2019-03-31T05:46:18.767Z,25.83
2019-03-31T05:48:48.247Z,25.67
2019-03-31T05:51:17.743Z,26.80
2019-03-31T05:53:47.267Z,24.63
2019-03-31T05:56:16.759Z,23.97
2019-03-31T05:58:46.335Z,25.53
2019-03-31T06:01:15.755Z,22.33
2019-03-31T06:03:45.288Z,23.07
2019-03-31T06:06:15.066Z,21.40
2019-03-31T06:08:44.499Z,20.97
2019-03-31T06:11:14.063Z,20.40
2019-03-31T06:13:43.661Z,19.37
2019-03-31T06:16:13.239Z,19.03
2019-03-31T06:18:42.723Z,19.20
2019-03-31T06:21:12.347Z,19.87
2019-03-31T06:23:42.214Z,18.90
2019-03-31T06:26:11.704Z,19.60
2019-03-31T06:28:41.443Z,18.07
2019-03-31T06:31:10.931Z,18.83
2019-03-31T06:33:40.359Z,17.93
2019-03-31T06:36:09.811Z,18.00
2019-03-31T06:38:39.383Z,18.40
2019-03-31T06:41:08.975Z,19.53
2019-03-31T06:43:38.795Z,17.47
2019-03-31T06:46:08.240Z,18.17
2019-03-31T06:48:38.189Z,18.23
2019-03-31T06:51:07.843Z,18.10
2019-03-31T06:53:37.331Z,17.47
2019-03-31T06:56:06.748Z,16.43
2019-03-31T06:58:36.251Z,17.13
2019-03-31T07:01:05.741Z,15.73
2019-03-31T07:03:35.620Z,16.53
2019-03-31T07:06:05.176Z,15.83
2019-03-31T07:08:34.680Z,15.57
2019-03-31T07:11:04.199Z,15.53
2019-03-31T07:13:33.782Z,15.63
2019-03-31T07:16:03.273Z,14.40
2019-03-31T07:18:32.764Z,15.23
2019-03-31T07:21:02.194Z,15.47
2019-03-31T07:23:31.608Z,15.10
2019-03-31T07:26:01.138Z,14.00
2019-03-31T07:28:30.760Z,14.43
2019-03-31T07:31:00.345Z,13.67
2019-03-31T07:33:29.920Z,13.80
2019-03-31T07:35:59.510Z,14.37
2019-03-31T07:38:38.726Z,11.47
2019-03-31T07:41:11.961Z,12.03
2019-03-31T07:43:31.516Z,12.50
2019-03-31T07:46:01.037Z,12.33
2019-03-31T07:48:30.473Z,11.30
2019-03-31T07:51:00.216Z,11.20
2019-03-31T07:53:29.721Z,11.33
2019-03-31T07:55:59.245Z,11.70
2019-03-31T07:58:28.878Z,12.23
2019-03-31T08:00:58.390Z,11.23
2019-03-31T08:03:28.277Z,11.23
2019-03-31T08:05:57.860Z,9.97
2019-03-31T08:08:27.293Z,11.70
2019-03-31T08:10:56.893Z,11.20
2019-03-31T08:13:26.429Z,11.43
2019-03-31T08:15:56.033Z,11.30
2019-03-31T08:18:25.645Z,11.30
2019-03-31T08:20:55.313Z,12.03
2019-03-31T08:23:24.941Z,12.13
2019-03-31T08:25:54.577Z,11.80
2019-03-31T08:28:25.005Z,11.80
2019-03-31T08:30:54.769Z,10.97
2019-03-31T08:33:24.321Z,11.47
2019-03-31T08:35:53.909Z,10.83
2019-03-31T08:38:24.624Z,8.63
2019-03-31T08:40:55.089Z,7.77
2019-03-31T08:43:24.597Z,7.70
2019-03-31T08:45:54.124Z,7.53
2019-03-31T08:48:23.713Z,7.90
2019-03-31T08:50:53.226Z,8.47
2019-03-31T08:53:22.730Z,8.30
2019-03-31T08:55:52.246Z,8.53
2019-03-31T08:58:21.870Z,7.30
2019-03-31T09:00:55.409Z,7.13
2019-03-31T09:03:24.874Z,6.77
2019-03-31T09:06:01.760Z,6.63
2019-03-31T09:08:25.818Z,6.90
2019-03-31T09:10:55.347Z,6.90
2019-03-31T09:13:24.846Z,7.60
2019-03-31T09:15:54.273Z,8.00
2019-03-31T09:18:23.858Z,7.47
2019-03-31T09:20:54.050Z,7.53
2019-03-31T09:23:23.662Z,7.60
2019-03-31T09:25:53.258Z,8.17
2019-03-31T09:28:22.795Z,7.47
2019-03-31T09:30:52.386Z,7.00
2019-03-31T09:33:21.832Z,7.50
2019-03-31T09:35:51.643Z,6.80
2019-03-31T09:38:21.134Z,7.17
2019-03-31T09:40:50.774Z,6.57
2019-03-31T09:43:20.291Z,6.87
2019-03-31T09:45:49.908Z,5.97
2019-03-31T09:48:19.494Z,6.90
2019-03-31T09:50:49.039Z,6.30
2019-03-31T09:53:18.688Z,6.63
2019-03-31T09:55:48.271Z,6.80
2019-03-31T09:58:18.184Z,6.37
2019-03-31T10:00:49.839Z,4.80
2019-03-31T10:03:19.683Z,4.50
2019-03-31T10:05:49.414Z,4.63
2019-03-31T10:08:22.179Z,4.43
2019-03-31T10:10:51.634Z,4.33
2019-03-31T10:13:21.185Z,4.63
2019-03-31T10:15:50.847Z,4.53
2019-03-31T10:18:20.320Z,4.90
2019-03-31T10:20:50.264Z,5.10
2019-03-31T10:23:19.837Z,5.63
2019-03-31T10:25:49.383Z,4.53
2019-03-31T10:28:18.891Z,4.93
2019-03-31T10:30:48.524Z,4.70
2019-03-31T10:33:18.124Z,4.43
2019-03-31T10:35:47.651Z,3.90
2019-03-31T10:38:17.279Z,4.27
2019-03-31T10:40:46.912Z,4.10
2019-03-31T10:43:16.527Z,4.07
2019-03-31T10:45:46.124Z,3.90
2019-03-31T10:48:20.726Z,4.30
2019-03-31T10:50:47.468Z,3.80
2019-03-31T10:53:16.978Z,3.70
2019-03-31T10:55:46.631Z,3.77
2019-03-31T10:58:16.380Z,4.77
2019-03-31T11:00:45.912Z,4.30
2019-03-31T11:03:15.487Z,3.97
2019-03-31T11:05:45.100Z,3.77
2019-03-31T11:08:15.046Z,3.87
2019-03-31T11:10:44.676Z,3.70
2019-03-31T11:13:14.228Z,3.60
2019-03-31T11:15:43.768Z,3.80
2019-03-31T11:18:13.800Z,3.70
2019-03-31T11:20:43.308Z,3.43
2019-03-31T11:23:17.808Z,3.97
2019-03-31T11:25:47.532Z,4.37
2019-03-31T11:28:17.176Z,4.57
2019-03-31T11:30:46.840Z,4.47
2019-03-31T11:33:16.536Z,3.90
2019-03-31T11:35:46.052Z,4.57
2019-03-31T11:38:15.588Z,4.33
2019-03-31T11:40:45.609Z,4.93
2019-03-31T11:43:15.089Z,5.73
2019-03-31T11:45:44.642Z,4.40
2019-03-31T11:48:14.180Z,4.20
2019-03-31T11:50:43.898Z,4.53
2019-03-31T11:53:13.416Z,3.73
2019-03-31T11:55:43.057Z,4.47
2019-03-31T11:58:12.756Z,4.23
2019-03-31T12:00:48.321Z,6.23
2019-03-31T12:03:17.939Z,6.67
2019-03-31T12:05:47.433Z,6.80
2019-03-31T12:08:17.114Z,6.37
2019-03-31T12:10:46.705Z,6.50
2019-03-31T12:13:16.240Z,5.50
2019-03-31T12:15:45.757Z,5.43
2019-03-31T12:18:15.309Z,5.00
2019-03-31T12:20:44.866Z,5.03
2019-03-31T12:23:15.305Z,4.47
2019-03-31T12:25:45.277Z,4.87
2019-03-31T12:28:14.837Z,3.87
2019-03-31T12:30:44.466Z,3.83
2019-03-31T12:33:14.010Z,4.07
2019-03-31T12:35:43.658Z,4.00
2019-03-31T12:38:13.186Z,3.37
2019-03-31T12:40:42.710Z,3.80
2019-03-31T12:43:12.326Z,3.50
2019-03-31T12:45:43.350Z,3.40
2019-03-31T12:48:13.296Z,3.50
2019-03-31T12:50:42.963Z,3.40
2019-03-31T12:53:12.546Z,3.70
2019-03-31T12:55:42.458Z,3.57
2019-03-31T12:58:12.042Z,4.00
2019-03-31T13:00:41.622Z,4.27
2019-03-31T13:03:11.172Z,3.57
2019-03-31T13:05:40.700Z,3.60
2019-03-31T13:08:10.383Z,3.50
2019-03-31T13:10:39.946Z,3.60
2019-03-31T13:13:09.458Z,4.07
2019-03-31T13:15:39.016Z,4.00
2019-03-31T13:18:08.622Z,4.20
2019-03-31T13:20:38.292Z,5.50
2019-03-31T13:23:08.010Z,3.60
2019-03-31T13:25:37.586Z,3.50
2019-03-31T13:28:07.195Z,3.37
2019-03-31T13:30:36.743Z,3.57
2019-03-31T13:33:06.466Z,3.77
2019-03-31T13:35:35.966Z,3.83
2019-03-31T13:38:11.320Z,3.20
2019-03-31T13:40:37.371Z,2.80
2019-03-31T13:43:07.363Z,3.40
2019-03-31T13:45:36.908Z,2.83
2019-03-31T13:48:06.480Z,2.93
2019-03-31T13:50:36.067Z,2.97
2019-03-31T13:53:05.659Z,2.80
2019-03-31T13:55:35.374Z,2.50
2019-03-31T13:58:07.641Z,2.90
2019-03-31T14:00:41.028Z,3.10
2019-03-31T14:03:10.836Z,3.03
2019-03-31T14:05:40.489Z,3.13
2019-03-31T14:08:24.666Z,3.47
2019-03-31T14:10:41.243Z,3.27
2019-03-31T14:13:10.949Z,3.33
2019-03-31T14:15:40.564Z,2.70
2019-03-31T14:18:10.248Z,3.67
2019-03-31T14:20:39.764Z,3.40
2019-03-31T14:23:09.285Z,3.83
2019-03-31T14:25:39.615Z,2.90
2019-03-31T14:28:09.123Z,3.20
2019-03-31T14:30:38.782Z,3.00
2019-03-31T14:33:08.517Z,3.23
2019-03-31T14:35:38.358Z,3.10
2019-03-31T14:38:08.133Z,3.13
2019-03-31T14:40:37.738Z,2.97
2019-03-31T14:43:07.318Z,3.30
2019-03-31T14:45:37.277Z,3.10
2019-03-31T14:48:07.802Z,2.93
2019-03-31T14:50:39.017Z,2.97
2019-03-31T14:53:09.073Z,3.07
2019-03-31T14:55:38.786Z,3.27
2019-03-31T14:58:08.695Z,2.83
2019-03-31T15:00:38.499Z,2.83
2019-03-31T15:03:08.322Z,2.73
2019-03-31T15:05:37.898Z,2.90
2019-03-31T15:08:07.674Z,2.73
2019-03-31T15:10:37.329Z,2.70
2019-03-31T15:13:06.926Z,2.83
2019-03-31T15:15:36.550Z,3.37
2019-03-31T15:18:06.273Z,3.30
2019-03-31T15:20:35.835Z,3.40
2019-03-31T15:23:05.731Z,3.57
2019-03-31T15:25:35.789Z,2.60
2019-03-31T15:28:05.390Z,2.50
2019-03-31T15:30:34.894Z,2.50
2019-03-31T15:33:04.466Z,2.40
2019-03-31T15:35:37.387Z,2.60
2019-03-31T15:38:05.382Z,2.70
2019-03-31T15:40:35.102Z,2.70
2019-03-31T15:43:04.738Z,2.80
2019-03-31T15:45:34.586Z,2.50
2019-03-31T15:48:04.290Z,2.80
2019-03-31T15:50:33.850Z,2.70
2019-03-31T15:53:03.484Z,2.83
2019-03-31T15:55:33.090Z,3.00
2019-03-31T15:58:05.327Z,3.73
2019-03-31T16:00:35.093Z,2.90
2019-03-31T16:03:04.683Z,3.20
2019-03-31T16:05:34.318Z,3.40
2019-03-31T16:08:03.430Z,3.30
2019-03-31T16:10:32.566Z,4.37
2019-03-31T16:13:01.707Z,3.10
2019-03-31T16:15:30.755Z,2.90
2019-03-31T16:17:59.730Z,2.63
2019-03-31T16:20:28.782Z,3.17
2019-03-31T16:22:57.800Z,2.50
2019-03-31T16:25:29.804Z,2.33
2019-03-31T16:27:58.779Z,2.50
2019-03-31T16:30:27.963Z,2.40
2019-03-31T16:32:56.947Z,2.97
2019-03-31T16:35:25.964Z,3.10
2019-03-31T16:37:54.946Z,3.80
2019-03-31T16:40:23.896Z,2.50
2019-03-31T16:42:52.799Z,3.20
2019-03-31T16:45:21.751Z,2.77
2019-03-31T16:47:51.163Z,2.80
2019-03-31T16:50:20.603Z,2.83
2019-03-31T16:52:52.499Z,2.27
2019-03-31T16:55:20.805Z,2.10
2019-03-31T16:57:49.855Z,2.50
2019-03-31T17:00:18.919Z,2.60
2019-03-31T17:02:47.920Z,2.47
2019-03-31T17:05:21.958Z,2.40
2019-03-31T17:07:48.147Z,2.20
2019-03-31T17:10:17.193Z,2.40
2019-03-31T17:12:46.179Z,2.03
2019-03-31T17:15:15.364Z,2.37
2019-03-31T17:17:44.376Z,2.70
2019-03-31T17:20:13.646Z,1.73
2019-03-31T17:22:42.700Z,1.90
2019-03-31T17:25:11.864Z,2.43
2019-03-31T17:27:41.472Z,2.20
2019-03-31T17:30:10.732Z,2.50
2019-03-31T17:32:39.768Z,1.97
2019-03-31T17:35:08.856Z,2.50
2019-03-31T17:37:37.812Z,1.97
2019-03-31T17:40:07.668Z,2.53
2019-03-31T17:42:37.113Z,2.10
2019-03-31T17:45:07.095Z,2.80
2019-03-31T17:47:36.128Z,2.03
2019-03-31T17:50:06.396Z,2.33
2019-03-31T17:52:35.348Z,2.30
2019-03-31T17:55:04.949Z,2.40
2019-03-31T17:57:34.009Z,2.07
2019-03-31T18:00:03.464Z,1.87
2019-03-31T18:02:32.541Z,1.90
2019-03-31T18:05:01.428Z,2.47
2019-03-31T18:07:30.717Z,2.50
2019-03-31T18:09:59.683Z,2.73
2019-03-31T18:12:28.745Z,2.90
2019-03-31T18:14:57.942Z,2.93
2019-03-31T18:17:26.417Z,3.37
2019-03-31T18:19:54.844Z,2.57
2019-03-31T18:22:23.328Z,2.70
2019-03-31T18:24:51.781Z,2.57
2019-03-31T18:27:20.608Z,3.30
2019-03-31T18:29:49.109Z,2.50
2019-03-31T18:32:17.621Z,2.63
2019-03-31T18:34:46.101Z,2.70
2019-03-31T18:37:14.581Z,2.50
2019-03-31T18:39:43.805Z,2.70
2019-03-31T18:42:12.305Z,2.60
2019-03-31T18:44:40.862Z,3.00
2019-03-31T18:47:09.417Z,2.50
2019-03-31T18:49:37.973Z,2.67
2019-03-31T18:52:06.517Z,2.67
2019-03-31T18:54:45.153Z,2.70
2019-03-31T18:57:38.949Z,2.87
2019-03-31T19:00:35.470Z,2.57
2019-03-31T19:03:12.881Z,2.70
2019-03-31T19:05:59.501Z,2.37
2019-03-31T19:08:38.586Z,2.70
2019-03-31T19:11:29.230Z,2.17
2019-03-31T19:14:26.154Z,2.33
2019-03-31T19:17:06.870Z,2.50
2019-03-31T19:20:13.307Z,2.57
2019-03-31T19:23:10.037Z,2.43
2019-03-31T19:25:56.487Z,2.30
2019-03-31T19:28:41.998Z,2.50
2019-03-31T19:31:29.931Z,1.93
2019-03-31T19:34:21.894Z,2.07
2019-03-31T19:37:12.427Z,2.77
2019-03-31T19:39:57.264Z,1.93
2019-03-31T19:42:38.922Z,2.33
2019-03-31T19:45:25.429Z,2.60
2019-03-31T19:48:19.110Z,2.40
2019-03-31T19:51:18.906Z,2.70
2019-03-31T19:53:55.397Z,2.87
2019-03-31T19:56:31.371Z,2.50
2019-03-31T19:59:24.878Z,2.33
2019-03-31T20:02:04.263Z,2.37
2019-03-31T20:05:03.975Z,2.70
2019-03-31T20:08:00.578Z,2.93
2019-03-31T20:10:48.617Z,2.43
2019-03-31T20:13:35.328Z,2.50
2019-03-31T20:16:38.089Z,2.50
2019-03-31T20:19:23.137Z,2.70
2019-03-31T20:21:57.121Z,1.83
2019-03-31T20:24:45.146Z,2.40
2019-03-31T20:27:31.742Z,3.00
2019-03-31T20:30:22.329Z,2.27
2019-03-31T20:33:01.805Z,2.40
2019-03-31T20:35:55.897Z,2.90
2019-03-31T20:38:43.471Z,3.03
2019-03-31T20:41:33.880Z,2.60
2019-03-31T20:44:02.353Z,2.60
2019-03-31T20:46:30.765Z,2.97
2019-03-31T20:48:59.178Z,3.20
2019-03-31T20:51:27.590Z,2.30
2019-03-31T20:53:56.094Z,2.60
2019-03-31T20:56:24.678Z,2.70
2019-03-31T20:58:53.177Z,2.50
2019-03-31T21:01:21.697Z,2.53
2019-03-31T21:03:50.122Z,2.33
2019-03-31T21:06:18.604Z,2.07
2019-03-31T21:08:47.114Z,2.40
2019-03-31T21:11:15.623Z,2.10
2019-03-31T21:16:13.502Z,2.50
2019-03-31T21:18:41.942Z,2.20
2019-03-31T21:21:10.354Z,2.00
2019-03-31T21:23:38.790Z,2.57
2019-03-31T21:26:07.630Z,2.33
2019-03-31T21:28:36.107Z,2.27
2019-03-31T21:31:04.630Z,2.23
2019-03-31T21:33:33.116Z,2.13
2019-03-31T21:36:01.626Z,2.17
2019-03-31T21:38:30.147Z,1.93
2019-03-31T21:40:58.589Z,2.57
2019-03-31T21:43:27.050Z,1.70
2019-03-31T21:45:55.518Z,2.10
2019-03-31T21:48:24.029Z,2.70
2019-03-31T21:50:52.554Z,1.87
2019-03-31T21:53:21.055Z,1.90
2019-03-31T21:55:49.490Z,1.97
2019-03-31T21:58:17.974Z,2.00
2019-03-31T22:00:57.228Z,2.20
2019-03-31T22:03:26.111Z,1.67
2019-03-31T22:05:54.603Z,1.90
2019-03-31T22:08:23.039Z,2.03
2019-03-31T22:10:51.627Z,1.67
2019-03-31T22:13:20.114Z,1.60
2019-03-31T22:15:49.207Z,1.63
2019-03-31T22:18:17.747Z,2.00
2019-03-31T22:20:47.459Z,1.60
2019-03-31T22:23:16.225Z,1.93
2019-03-31T22:25:44.708Z,2.13
2019-03-31T22:28:13.575Z,1.80
2019-03-31T22:30:41.987Z,1.77
2019-03-31T22:33:10.536Z,1.67
2019-03-31T22:35:39.079Z,1.70
2019-03-31T22:38:07.571Z,1.77
2019-03-31T22:40:36.184Z,1.93
2019-03-31T22:43:07.666Z,2.03
2019-03-31T22:45:34.812Z,1.70
2019-03-31T22:48:03.228Z,1.90
2019-03-31T22:50:31.653Z,1.57
2019-03-31T22:53:00.145Z,1.77
2019-03-31T22:55:28.631Z,2.07
2019-03-31T22:57:57.208Z,1.90
2019-03-31T23:00:26.968Z,2.00
2019-03-31T23:02:55.448Z,2.07
2019-03-31T23:05:23.983Z,2.93
2019-03-31T23:07:52.478Z,1.70
2019-03-31T23:10:21.000Z,2.03
2019-03-31T23:12:50.013Z,2.10
2019-03-31T23:15:18.418Z,2.07
2019-03-31T23:17:46.864Z,1.57
2019-03-31T23:20:15.433Z,1.90
2019-03-31T23:22:43.940Z,2.13
2019-03-31T23:25:12.848Z,2.10
2019-03-31T23:27:41.341Z,1.63
2019-03-31T23:30:10.901Z,2.07
2019-03-31T23:32:39.377Z,3.07
2019-03-31T23:35:07.965Z,1.50
2019-03-31T23:37:36.480Z,1.73
2019-03-31T23:40:05.235Z,1.80
2019-03-31T23:42:33.721Z,1.90
2019-03-31T23:45:02.241Z,2.00
2019-03-31T23:47:30.793Z,1.70
2019-03-31T23:49:59.228Z,1.90
2019-03-31T23:52:27.724Z,1.93
2019-03-31T23:54:56.172Z,2.00
2019-03-31T23:57:40.485Z,2.10
